Time;durP1;ratioP1;P1;durP2;ratioP2;P2;SDS_P1;SDS_P2;PMS_P1;PMS_P2;Temp;Humidity;BMP_temperature;BMP_pressure;BME280_temperature;BME280_humidity;BME280_pressure;Samples;Min_cycle;Max_cycle;Signal;HPM_P1;HPM_P2
2022/01/07 00:02:06;;;;;;;18.48;4.20;;;;;;;2.80;90.72;101146.53;5052720;28;20424;-49
2022/01/07 00:04:32;;;;;;;19.23;4.07;;;;;;;2.80;90.83;101149.19;5052828;28;20075;-46
2022/01/07 00:06:57;;;;;;;16.55;4.20;;;;;;;2.76;90.51;101145.91;5051930;28;20043;-47
2022/01/07 00:09:23;;;;;;;11.52;3.92;;;;;;;2.79;90.41;101145.69;5053248;28;20103;-45
2022/01/07 00:11:48;;;;;;;18.85;5.18;;;;;;;2.81;90.59;101130.44;5053022;28;20109;-45
2022/01/07 00:14:13;;;;;;;22.73;4.25;;;;;;;2.82;89.94;101134.78;5052933;28;20037;-44
2022/01/07 00:16:39;;;;;;;13.07;3.92;;;;;;;2.84;90.48;101132.88;5051366;28;20029;-44
2022/01/07 00:19:04;;;;;;;10.05;3.60;;;;;;;2.85;90.64;101129.22;5052988;28;20020;-44
2022/01/07 00:21:30;;;;;;;12.13;4.05;;;;;;;2.89;90.29;101126.31;5052606;28;20036;-45
2022/01/07 00:23:55;;;;;;;21.10;4.97;;;;;;;2.91;90.87;101127.03;5052464;28;20095;-44
2022/01/07 00:26:20;;;;;;;11.02;3.80;;;;;;;2.87;90.47;101115.81;5051617;28;20029;-44
2022/01/07 00:28:46;;;;;;;16.90;4.97;;;;;;;2.88;90.67;101127.28;5052794;28;20033;-45
2022/01/07 00:31:11;;;;;;;12.02;3.95;;;;;;;2.90;90.42;101120.00;5052438;28;20041;-44
2022/01/07 00:33:37;;;;;;;17.48;4.80;;;;;;;2.90;90.56;101104.94;5052605;28;20041;-42
2022/01/07 00:36:03;;;;;;;19.83;4.60;;;;;;;2.95;89.90;101108.06;5052700;28;20098;-43
2022/01/07 00:38:30;;;;;;;14.10;4.05;;;;;;;2.99;89.90;101113.97;5052149;28;20357;-43
2022/01/07 00:40:56;;;;;;;14.00;4.00;;;;;;;3.04;88.64;101094.00;5052801;28;20028;-43
2022/01/07 00:43:21;;;;;;;12.07;4.38;;;;;;;3.10;88.31;101089.13;5052477;28;20457;-43
2022/01/07 00:45:46;;;;;;;17.60;4.32;;;;;;;3.14;88.13;101090.59;5052401;28;20717;-42
2022/01/07 00:48:12;;;;;;;12.00;4.22;;;;;;;3.13;88.83;101094.19;5052535;28;20378;-41
2022/01/07 00:50:37;;;;;;;18.48;4.90;;;;;;;3.12;89.02;101080.06;5052362;28;20044;-41
2022/01/07 00:53:03;;;;;;;20.13;4.97;;;;;;;3.10;89.69;101087.31;5052720;28;20025;-42
2022/01/07 00:55:28;;;;;;;18.23;4.57;;;;;;;3.12;89.68;101076.56;5051312;28;20033;-41
2022/01/07 00:57:54;;;;;;;18.05;5.63;;;;;;;3.09;89.42;101082.97;5052231;28;20171;-42
2022/01/07 01:00:22;;;;;;;16.27;5.15;;;;;;;3.10;89.40;101074.03;5052377;28;20025;-42
2022/01/07 01:02:48;;;;;;;15.45;5.40;;;;;;;3.08;89.75;101076.81;5051983;28;20029;-42
2022/01/07 01:05:13;;;;;;;17.10;5.60;;;;;;;3.05;90.25;101066.44;5052267;28;20055;-42
2022/01/07 01:07:39;;;;;;;15.93;5.13;;;;;;;3.04;90.77;101063.91;5052204;28;20035;-42
2022/01/07 01:10:07;;;;;;;20.52;4.93;;;;;;;3.06;90.51;101060.16;5084506;28;20447;-41
2022/01/07 01:12:36;;;;;;;16.75;5.20;;;;;;;3.08;90.97;101050.22;5052351;28;20136;-41
2022/01/07 01:15:03;;;;;;;20.02;5.35;;;;;;;3.08;91.40;101054.69;5051995;28;20053;-42
2022/01/07 01:17:29;;;;;;;16.65;5.95;;;;;;;3.04;92.00;101074.53;5052162;28;20039;-42
2022/01/07 01:19:54;;;;;;;17.20;6.05;;;;;;;3.07;91.99;101053.00;5053854;28;20056;-43
2022/01/07 01:22:19;;;;;;;14.93;6.55;;;;;;;3.00;92.67;101067.78;5055852;28;20369;-48
2022/01/07 01:24:45;;;;;;;16.23;7.30;;;;;;;2.95;93.37;101052.22;5055892;28;20452;-51
2022/01/07 01:27:10;;;;;;;22.58;7.07;;;;;;;2.93;93.24;101045.34;5054665;28;20045;-52
2022/01/07 01:29:36;;;;;;;14.20;8.50;;;;;;;2.94;93.09;101047.88;5055881;28;20055;-47
2022/01/07 01:32:01;;;;;;;15.20;6.95;;;;;;;2.95;94.05;101046.03;5055546;28;20021;-47
2022/01/07 01:34:27;;;;;;;24.23;7.45;;;;;;;2.94;94.07;101045.19;5066196;28;20361;-49
2022/01/07 01:36:52;;;;;;;22.33;7.95;;;;;;;2.92;94.94;101044.47;5057094;28;20048;-47
2022/01/07 01:39:18;;;;;;;21.15;8.07;;;;;;;2.90;94.50;101034.94;5055687;28;20051;-48
2022/01/07 01:41:44;;;;;;;26.52;8.77;;;;;;;2.91;94.07;101026.00;5055624;28;20021;-48
2022/01/07 01:44:09;;;;;;;23.27;8.35;;;;;;;2.91;94.47;101020.69;5055476;28;20045;-47
2022/01/07 01:46:35;;;;;;;29.05;8.85;;;;;;;2.90;94.26;101019.00;5055449;28;20021;-48
2022/01/07 01:49:00;;;;;;;17.45;7.88;;;;;;;2.90;94.42;101013.69;5055212;28;20056;-48
2022/01/07 01:51:26;;;;;;;30.45;8.95;;;;;;;2.91;94.98;101026.00;5055809;28;20400;-47
2022/01/07 01:53:51;;;;;;;28.45;8.85;;;;;;;2.92;94.55;101022.38;5054145;28;20461;-46
2022/01/07 01:56:16;;;;;;;29.38;9.65;;;;;;;2.92;95.65;101015.25;5054025;28;20087;-48
2022/01/07 01:58:42;;;;;;;21.55;9.27;;;;;;;2.97;95.20;101014.88;5055313;28;20024;-44
2022/01/07 02:01:07;;;;;;;25.92;9.20;;;;;;;2.96;95.39;101013.19;5054609;28;20108;-43
2022/01/07 02:03:33;;;;;;;22.80;9.40;;;;;;;2.95;95.63;101001.72;5055241;28;20040;-44
2022/01/07 02:05:58;;;;;;;17.52;8.70;;;;;;;2.98;95.50;100996.13;5055322;28;20043;-42
2022/01/07 02:08:24;;;;;;;29.83;9.38;;;;;;;3.01;95.53;100987.06;5055207;28;20031;-42
2022/01/07 02:10:49;;;;;;;24.30;9.52;;;;;;;3.03;95.62;100998.41;5054760;28;20036;-42
2022/01/07 02:13:17;;;;;;;14.82;9.48;;;;;;;3.05;95.52;100992.00;5055129;28;20481;-42
2022/01/07 02:15:43;;;;;;;;;;;;;;;3.06;95.49;100995.50;5054016;28;20071;-42
2022/01/07 02:18:08;;;;;;;19.58;10.15;;;;;;;3.05;95.63;100999.97;5087271;28;19920;-48
2022/01/07 02:20:34;;;;;;;28.85;9.50;;;;;;;3.04;96.11;101000.94;5054026;28;20033;-46
2022/01/07 02:23:00;;;;;;;18.52;10.25;;;;;;;3.05;95.75;100999.09;5054362;28;20033;-46
2022/01/07 02:25:25;;;;;;;19.38;10.65;;;;;;;3.05;95.87;100999.97;5054593;28;20108;-48
2022/01/07 02:27:51;;;;;;;24.40;10.48;;;;;;;3.04;96.30;100994.78;5054708;28;20037;-46
2022/01/07 02:30:19;;;;;;;20.63;11.05;;;;;;;3.04;96.70;100992.13;5054235;28;20033;-44
2022/01/07 02:32:46;;;;;;;17.75;10.27;;;;;;;3.05;96.83;100992.00;5054225;28;20106;-45
2022/01/07 02:35:12;;;;;;;23.83;10.73;;;;;;;3.05;95.75;100980.50;5054634;28;20040;-44
2022/01/07 02:37:37;;;;;;;22.23;10.57;;;;;;;3.06;96.03;100982.19;5053051;28;20090;-43
2022/01/07 02:40:04;;;;;;;19.50;10.90;;;;;;;3.06;95.59;100971.56;5054498;28;20388;-44
2022/01/07 02:42:30;;;;;;;23.42;11.02;;;;;;;3.12;96.14;100965.72;5054355;28;20045;-45
2022/01/07 02:44:55;;;;;;;22.92;10.52;;;;;;;3.12;95.95;100963.06;5054811;28;20028;-44
2022/01/07 02:47:21;;;;;;;20.05;10.90;;;;;;;3.13;95.89;100956.75;5054524;28;20033;-40
2022/01/07 02:49:50;;;;;;;29.48;12.43;;;;;;;3.13;96.86;100951.44;5054317;28;20040;-43
2022/01/07 02:52:15;;;;;;;25.88;12.77;;;;;;;3.13;96.25;100954.09;5054268;28;20084;-40
2022/01/07 02:54:41;;;;;;;28.02;13.82;;;;;;;3.18;96.38;100954.53;5054689;28;20116;-42
2022/01/07 02:57:06;;;;;;;25.23;12.50;;;;;;;3.19;96.46;100944.78;5054501;28;20040;-40
2022/01/07 02:59:32;;;;;;;27.63;14.13;;;;;;;3.18;96.70;100957.19;5053489;28;20503;-41
2022/01/07 03:01:57;;;;;;;31.08;12.95;;;;;;;3.22;96.40;100953.31;5054017;28;20052;-40
2022/01/07 03:04:24;;;;;;;37.45;14.38;;;;;;;3.27;96.83;100956.44;5055880;28;20029;-40
2022/01/07 03:06:49;;;;;;;27.15;13.15;;;;;;;3.30;96.60;100958.81;5056553;28;20021;-40
2022/01/07 03:09:15;;;;;;;33.78;15.75;;;;;;;3.26;97.07;100943.25;5054804;28;20033;-42
2022/01/07 03:11:40;;;;;;;34.72;15.55;;;;;;;3.24;96.93;100947.88;5052513;28;20048;-49
2022/01/07 03:14:06;;;;;;;30.27;15.93;;;;;;;3.24;97.16;100927.44;5053813;28;20035;-49
2022/01/07 03:16:31;;;;;;;27.52;14.80;;;;;;;3.28;97.10;100923.53;5053999;28;20122;-45
2022/01/07 03:18:57;;;;;;;26.52;13.77;;;;;;;3.29;96.73;100933.19;5053521;28;20354;-46
2022/01/07 03:21:22;;;;;;;24.55;13.38;;;;;;;3.29;96.38;100914.59;5053400;28;20033;-43
2022/01/07 03:23:47;;;;;;;31.52;13.05;;;;;;;3.33;96.80;100911.66;5052426;28;20373;-43
2022/01/07 03:26:13;;;;;;;22.15;12.57;;;;;;;3.35;96.41;100905.22;5053518;28;20438;-42
2022/01/07 03:28:39;;;;;;;26.15;12.02;;;;;;;3.41;96.93;100898.53;5053544;28;20416;-42
2022/01/07 03:31:06;;;;;;;20.20;11.43;;;;;;;3.42;96.38;100882.44;5053567;28;20029;-43
2022/01/07 03:33:31;;;;;;;23.88;11.65;;;;;;;3.41;96.45;100890.53;5052010;28;20044;-42
2022/01/07 03:35:57;;;;;;;24.70;12.27;;;;;;;3.39;96.68;100906.63;5053374;28;20470;-42
2022/01/07 03:38:22;;;;;;;23.17;12.90;;;;;;;3.39;96.46;100893.31;5053247;28;20378;-42
2022/01/07 03:40:48;;;;;;;19.95;12.15;;;;;;;3.40;96.47;100884.38;5053271;28;20032;-41
2022/01/07 03:43:14;;;;;;;20.92;11.73;;;;;;;3.40;96.53;100888.88;5052616;28;20025;-41
2022/01/07 03:45:39;;;;;;;20.70;12.90;;;;;;;3.39;96.87;100864.06;5053456;28;20033;-41
2022/01/07 03:48:05;;;;;;;26.50;13.23;;;;;;;3.40;96.74;100868.41;5052991;28;20029;-41
2022/01/07 03:50:31;;;;;;;23.02;11.90;;;;;;;3.40;96.90;100863.09;5049185;28;20028;-41
2022/01/07 03:52:57;;;;;;;22.38;12.43;;;;;;;3.39;96.95;100852.59;5052246;28;20068;-41
2022/01/07 03:55:26;;;;;;;24.08;12.75;;;;;;;3.40;96.71;100848.97;5053442;28;20040;-41
2022/01/07 03:57:52;;;;;;;27.95;13.30;;;;;;;3.40;96.65;100867.59;5053302;28;20416;-41
2022/01/07 04:00:20;;;;;;;31.27;13.23;;;;;;;3.38;97.31;100854.41;5085411;28;20086;-41
2022/01/07 04:02:46;;;;;;;30.77;13.25;;;;;;;3.40;97.10;100868.41;5051140;28;20040;-41
2022/01/07 04:05:14;;;;;;;29.30;13.45;;;;;;;3.41;97.35;100871.91;5053059;28;20033;-42
2022/01/07 04:07:39;;;;;;;26.98;14.45;;;;;;;3.43;96.88;100862.00;5053006;28;20466;-42
2022/01/07 04:10:05;;;;;;;29.52;13.25;;;;;;;3.45;96.92;100866.19;5053179;28;20135;-41
2022/01/07 04:12:30;;;;;;;28.85;13.38;;;;;;;3.48;96.90;100857.94;5051436;28;20032;-41
2022/01/07 04:15:08;;;;;;;24.30;11.70;;;;;;;3.50;96.65;100842.69;5052835;28;20131;-41
2022/01/07 04:17:47;;;;;;;21.05;11.82;;;;;;;3.57;97.29;100853.63;5052968;28;20033;-41
2022/01/07 04:20:15;;;;;;;28.95;12.02;;;;;;;3.56;96.68;100843.97;5052938;28;20479;-41
2022/01/07 04:22:41;;;;;;;23.95;11.60;;;;;;;3.56;96.44;100843.97;5052776;28;20112;-41
2022/01/07 04:25:09;;;;;;;28.52;11.93;;;;;;;3.55;97.09;100850.25;5052590;28;20040;-41
2022/01/07 04:27:35;;;;;;;22.30;10.77;;;;;;;3.54;96.85;100848.56;5051423;28;20420;-41
2022/01/07 04:30:00;;;;;;;32.42;11.35;;;;;;;3.55;96.88;100850.25;5052631;28;20033;-41
2022/01/07 04:32:26;;;;;;;19.52;10.27;;;;;;;3.56;96.58;100857.25;5052244;28;20099;-41
2022/01/07 04:34:51;;;;;;;24.65;10.50;;;;;;;3.58;97.08;100855.31;5052686;28;20090;-41
2022/01/07 04:37:17;;;;;;;29.65;10.70;;;;;;;3.62;96.71;100850.56;5052443;28;20111;-41
2022/01/07 04:39:42;;;;;;;25.73;9.73;;;;;;;3.63;96.99;100842.41;5055700;28;20048;-41
2022/01/07 04:42:08;;;;;;;18.20;9.63;;;;;;;3.66;96.55;100852.81;5072614;28;20486;-41
2022/01/07 04:44:35;;;;;;;23.27;9.25;;;;;;;3.71;96.41;100861.22;5067208;28;20487;-41
2022/01/07 04:47:01;;;;;;;21.20;10.18;;;;;;;3.73;96.64;100845.94;5052778;28;20021;-41
2022/01/07 04:49:26;;;;;;;23.88;10.60;;;;;;;3.76;97.00;100844.81;5052589;28;20025;-41
2022/01/07 04:51:51;;;;;;;30.05;10.98;;;;;;;3.79;96.94;100852.56;5052321;28;20116;-40
2022/01/07 04:54:17;;;;;;;25.88;10.30;;;;;;;3.84;96.90;100838.81;5054926;28;20029;-41
2022/01/07 04:56:42;;;;;;;27.40;11.88;;;;;;;3.88;96.71;100840.22;5056674;28;20036;-41
2022/01/07 04:59:07;;;;;;;28.10;11.13;;;;;;;3.95;96.87;100846.69;5056209;28;20040;-41
2022/01/07 05:01:33;;;;;;;33.53;12.25;;;;;;;3.97;96.82;100847.38;5056181;28;20033;-41
2022/01/07 05:03:58;;;;;;;25.00;11.93;;;;;;;3.97;96.73;100844.72;5056542;28;20108;-41
2022/01/07 05:09:07;;;;;;;27.17;11.75;;;;;;;3.98;96.55;100838.41;5056382;28;20408;-41
2022/01/07 05:11:32;;;;;;;36.90;11.98;;;;;;;4.00;96.92;100838.25;5050047;28;20042;-41
2022/01/07 05:13:58;;;;;;;20.42;11.63;;;;;;;4.01;97.23;100835.47;5036628;28;20073;-41
2022/01/07 05:16:24;;;;;;;36.20;13.15;;;;;;;4.02;97.38;100839.81;5036369;28;20362;-41
2022/01/07 05:18:49;;;;;;;28.98;12.23;;;;;;;4.03;97.19;100854.81;5036326;28;20430;-40
2022/01/07 05:21:15;;;;;;;32.92;12.88;;;;;;;4.06;96.91;100861.69;5051650;28;20076;-42
2022/01/07 05:23:40;;;;;;;30.23;11.93;;;;;;;4.07;97.19;100858.03;5054022;28;20037;-41
2022/01/07 05:26:07;;;;;;;26.33;12.50;;;;;;;4.06;96.91;100854.53;5055333;28;20060;-41
2022/01/07 05:28:33;;;;;;;28.88;12.40;;;;;;;4.06;96.87;100849.22;5053965;28;20031;-41
2022/01/07 05:30:59;;;;;;;19.38;11.73;;;;;;;4.04;96.87;100845.84;5056131;28;20108;-41
2022/01/07 05:33:24;;;;;;;30.55;13.25;;;;;;;4.01;96.93;100856.78;5055987;28;20415;-41
2022/01/07 05:35:49;;;;;;;27.70;12.73;;;;;;;3.98;97.27;100851.72;5055568;28;20029;-40
2022/01/07 05:38:15;;;;;;;32.97;13.55;;;;;;;4.00;96.98;100849.75;5054356;28;20111;-41
2022/01/07 05:40:41;;;;;;;50.45;16.02;;;;;;;3.99;97.02;100837.44;5055685;28;20028;-41
2022/01/07 05:43:06;;;;;;;35.55;14.15;;;;;;;4.02;97.33;100844.28;5055337;28;20373;-41
2022/01/07 05:45:32;;;;;;;23.58;14.75;;;;;;;4.03;97.16;100849.50;5033782;28;20036;-40
2022/01/07 05:47:57;;;;;;;37.65;15.43;;;;;;;4.04;96.41;100848.50;5036734;28;20487;-41
2022/01/07 05:50:22;;;;;;;31.75;14.93;;;;;;;4.05;97.07;100852.84;5055712;28;20509;-41
2022/01/07 05:52:48;;;;;;;33.95;15.80;;;;;;;4.09;96.77;100859.59;5048122;28;20029;-41
2022/01/07 05:55:13;;;;;;;34.47;16.38;;;;;;;4.13;96.54;100866.31;5053841;28;20369;-41
2022/01/07 05:57:38;;;;;;;39.30;17.80;;;;;;;4.12;96.39;100866.44;5055497;28;20029;-41
2022/01/07 06:00:07;;;;;;;33.83;16.50;;;;;;;4.11;97.00;100860.28;5086727;28;20029;-41
2022/01/07 06:02:32;;;;;;;40.30;17.58;;;;;;;4.12;96.54;100864.63;5054557;28;20048;-41
2022/01/07 06:04:58;;;;;;;34.85;16.63;;;;;;;4.13;97.12;100865.47;5052235;28;20428;-41
2022/01/07 06:07:23;;;;;;;38.10;16.05;;;;;;;4.15;96.92;100875.00;5054643;28;20490;-41
2022/01/07 06:09:48;;;;;;;33.83;15.55;;;;;;;4.18;96.96;100869.38;5055360;28;20056;-41
2022/01/07 06:12:14;;;;;;;36.28;16.40;;;;;;;4.20;96.88;100865.75;5054925;28;20041;-41
2022/01/07 06:14:39;;;;;;;37.08;16.70;;;;;;;4.20;96.68;100855.09;5054998;28;20029;-41
2022/01/07 06:17:08;;;;;;;31.10;15.38;;;;;;;4.21;96.62;100854.09;5054458;28;20032;-41
2022/01/07 06:19:33;;;;;;;40.85;17.45;;;;;;;4.22;96.27;100853.16;5053289;28;20358;-41
2022/01/07 06:21:59;;;;;;;40.78;15.52;;;;;;;4.23;96.65;100846.81;5055039;28;20071;-40
2022/01/07 06:24:24;;;;;;;33.15;15.32;;;;;;;4.20;96.55;100839.13;5055018;28;20025;-41
2022/01/07 06:26:49;;;;;;;42.08;16.67;;;;;;;4.20;96.31;100834.63;5054917;28;20086;-41
2022/01/07 06:29:15;;;;;;;37.10;16.33;;;;;;;4.21;96.09;100835.47;5052525;28;20025;-41
2022/01/07 06:31:40;;;;;;;41.33;18.45;;;;;;;4.21;96.47;100846.94;5052083;28;20192;-40
2022/01/07 06:34:05;;;;;;;36.47;16.50;;;;;;;4.21;96.67;100852.28;5050884;28;20090;-42
2022/01/07 06:36:31;;;;;;;33.70;17.00;;;;;;;4.20;96.54;100847.09;5034097;28;20127;-41
2022/01/07 06:38:58;;;;;;;35.20;16.45;;;;;;;4.20;96.31;100847.09;5032566;28;20458;-42
2022/01/07 06:41:23;;;;;;;41.63;16.63;;;;;;;4.17;96.69;100854.41;5032828;28;20028;-41
2022/01/07 06:43:48;;;;;;;37.78;16.70;;;;;;;4.21;96.93;100851.44;5032555;28;20419;-41
2022/01/07 06:46:14;;;;;;;35.67;14.90;;;;;;;4.17;96.44;100857.06;5047118;28;20025;-41
2022/01/07 06:48:41;;;;;;;33.85;16.10;;;;;;;4.17;96.44;100857.06;5051994;28;20059;-44
2022/01/07 06:51:06;;;;;;;38.88;15.25;;;;;;;4.14;96.29;100861.84;5052180;28;20345;-42
2022/01/07 06:53:32;;;;;;;38.08;15.18;;;;;;;4.15;96.37;100863.50;5052128;28;20067;-44
2022/01/07 06:55:57;;;;;;;34.97;15.40;;;;;;;4.13;96.54;100850.34;5052211;28;20109;-41
2022/01/07 06:58:23;;;;;;;30.88;14.60;;;;;;;4.14;96.76;100843.19;5053365;28;20037;-41
2022/01/07 07:00:48;;;;;;;38.83;14.05;;;;;;;4.13;96.35;100838.81;5053044;28;20083;-41
2022/01/07 07:03:13;;;;;;;36.95;13.13;;;;;;;4.09;96.25;100838.28;5054312;28;20453;-41
2022/01/07 07:05:39;;;;;;;33.28;13.00;;;;;;;4.07;96.52;100834.91;5054188;28;20029;-41
2022/01/07 07:08:04;;;;;;;33.47;12.05;;;;;;;4.05;96.20;100830.69;5054178;28;20035;-41
2022/01/07 07:10:29;;;;;;;39.35;11.85;;;;;;;4.04;96.37;100842.34;5054328;28;20029;-40
2022/01/07 07:12:55;;;;;;;29.55;11.38;;;;;;;4.03;96.32;100838.84;5054039;28;20021;-41
2022/01/07 07:15:20;;;;;;;29.33;10.85;;;;;;;4.04;96.38;100845.84;5049827;28;20037;-41
2022/01/07 07:17:45;;;;;;;26.80;9.93;;;;;;;4.04;96.84;100843.19;5031246;28;20116;-41
2022/01/07 07:20:13;;;;;;;38.25;9.80;;;;;;;4.02;97.15;100839.81;5034499;28;20040;-42
2022/01/07 07:22:38;;;;;;;23.83;9.82;;;;;;;4.01;96.62;100835.47;5034014;28;20163;-42
2022/01/07 07:25:04;;;;;;;21.98;9.77;;;;;;;4.02;96.60;100834.47;5040157;28;20113;-41
2022/01/07 07:27:29;;;;;;;23.95;9.52;;;;;;;4.02;96.49;100842.47;5052306;28;20094;-41
2022/01/07 07:29:55;;;;;;;28.77;9.07;;;;;;;4.01;96.45;100832.81;5041737;28;20053;-40
2022/01/07 07:32:25;;;;;;;30.13;9.52;;;;;;;3.99;96.84;100837.44;5032695;28;20076;-41
2022/01/07 07:35:00;;;;;;;28.25;8.73;;;;;;;3.97;96.87;100839.38;5033425;28;20037;-41
2022/01/07 07:37:26;;;;;;;50.15;9.63;;;;;;;3.97;96.94;100834.06;5033812;28;20473;-40
2022/01/07 07:39:51;;;;;;;24.73;8.07;;;;;;;3.97;96.68;100856.19;5033337;28;20033;-40
2022/01/07 07:42:17;;;;;;;32.25;9.10;;;;;;;3.96;96.71;100832.38;5036339;28;20040;-40
2022/01/07 07:44:42;;;;;;;24.55;7.72;;;;;;;3.98;96.25;100833.09;5052755;28;20029;-41
2022/01/07 07:47:08;;;;;;;28.05;9.18;;;;;;;3.97;96.66;100842.03;5051979;28;20029;-41
2022/01/07 07:49:33;;;;;;;28.80;8.65;;;;;;;3.94;96.37;100845.00;5053304;28;20087;-40
2022/01/07 07:51:59;;;;;;;33.97;8.75;;;;;;;3.96;96.65;100845.69;5051487;28;20039;-41
2022/01/07 07:54:24;;;;;;;46.55;9.20;;;;;;;3.95;96.53;100846.69;5052570;28;20021;-41
2022/01/07 07:56:50;;;;;;;33.42;8.23;;;;;;;3.92;96.59;100849.59;5052863;28;20052;-40
2022/01/07 07:59:15;;;;;;;32.40;8.02;;;;;;;3.93;96.74;100853.97;5051656;28;20029;-40
2022/01/07 08:01:41;;;;;;;27.00;8.65;;;;;;;3.93;96.12;100853.97;5052644;28;20062;-40
2022/01/07 08:04:07;;;;;;;28.25;7.90;;;;;;;3.92;96.21;100853.13;5052625;28;20028;-40
2022/01/07 08:06:32;;;;;;;29.52;9.95;;;;;;;3.93;96.53;100859.28;5052651;28;20071;-40
2022/01/07 08:08:58;;;;;;;31.00;7.70;;;;;;;3.96;96.37;100856.34;5052214;28;20029;-41
2022/01/07 08:11:27;;;;;;;23.98;6.15;;;;;;;4.01;96.68;100851.44;5052513;28;20361;-41
2022/01/07 08:16:36;;;;;;;32.13;6.15;;;;;;;4.16;95.72;100859.84;5052708;28;20515;-41
2022/01/07 08:19:02;;;;;;;33.55;6.18;;;;;;;4.18;95.56;100861.41;5052412;28;20137;-41
2022/01/07 08:21:28;;;;;;;41.03;6.13;;;;;;;4.20;95.06;100855.09;5052637;28;20389;-41
2022/01/07 08:23:54;;;;;;;25.65;5.57;;;;;;;4.17;94.61;100854.41;5052858;28;20411;-41
2022/01/07 08:26:21;;;;;;;28.50;6.25;;;;;;;4.13;95.14;100844.16;5054473;28;20402;-41
2022/01/07 08:28:54;;;;;;;24.55;6.03;;;;;;;4.11;95.22;100849.63;5055145;28;20072;-42
2022/01/07 08:36:31;;;;;;;24.48;6.53;;;;;;;4.37;94.01;100851.72;5052273;28;20088;-41
2022/01/07 08:38:58;;;;;;;18.95;5.55;;;;;;;4.54;93.29;100847.50;5051926;28;20047;-41
2022/01/07 08:41:26;;;;;;;21.05;5.60;;;;;;;4.73;91.78;100846.63;5052066;28;20112;-41
2022/01/07 08:43:51;;;;;;;25.60;6.30;;;;;;;4.96;90.48;100847.13;5052068;28;20040;-41
2022/01/07 08:46:17;;;;;;;18.83;4.45;;;;;;;5.28;89.50;100844.03;5051852;28;20033;-42
2022/01/07 08:48:42;;;;;;;24.98;5.20;;;;;;;5.47;88.27;100851.94;5052176;28;20400;-42
2022/01/07 08:51:08;;;;;;;19.15;5.32;;;;;;;5.44;87.62;100852.25;5050643;28;20524;-42
2022/01/07 08:53:34;;;;;;;25.88;4.70;;;;;;;5.18;88.56;100853.91;5051702;28;20055;-41
2022/01/07 08:55:59;;;;;;;21.83;5.13;;;;;;;4.96;89.33;100853.28;5051660;28;20036;-40
2022/01/07 08:58:25;;;;;;;16.27;5.43;;;;;;;4.74;90.55;100854.50;5051663;28;20078;-41
2022/01/07 09:00:51;;;;;;;16.05;4.72;;;;;;;4.70;90.73;100844.25;5052121;28;20192;-41
2022/01/07 09:03:16;;;;;;;25.17;6.90;;;;;;;4.58;91.90;100855.09;5051507;28;20407;-41
2022/01/07 09:05:41;;;;;;;31.40;6.43;;;;;;;4.66;92.20;100849.03;5052134;28;20025;-42
2022/01/07 09:08:09;;;;;;;23.48;7.30;;;;;;;4.86;93.39;100865.81;5052071;28;20465;-42
2022/01/07 09:10:35;;;;;;;28.65;7.78;;;;;;;5.13;94.24;100854.34;5051969;28;20544;-48
2022/01/07 09:13:00;;;;;;;34.10;7.07;;;;;;;5.40;93.67;100850.88;5051807;28;20096;-54
2022/01/07 09:15:25;;;;;;;21.13;5.80;;;;;;;5.76;92.05;100850.09;5052170;28;20051;-47
2022/01/07 09:17:51;;;;;;;22.35;5.63;;;;;;;5.80;89.85;100852.34;5051694;28;20115;-48
2022/01/07 09:20:16;;;;;;;24.17;5.60;;;;;;;5.90;89.44;100853.13;5050959;28;20131;-45
2022/01/07 09:22:42;;;;;;;23.10;5.97;;;;;;;5.63;89.81;100858.47;5042819;28;20021;-43
2022/01/07 09:25:08;;;;;;;26.63;6.05;;;;;;;5.41;90.54;100849.88;5048690;28;20120;-44
2022/01/07 09:27:34;;;;;;;21.70;5.30;;;;;;;5.14;90.65;100856.03;5048155;28;20488;-43
2022/01/07 09:29:59;;;;;;;23.17;7.00;;;;;;;5.08;92.01;100848.59;5048501;28;20036;-42
2022/01/07 09:32:24;;;;;;;19.67;6.65;;;;;;;5.05;92.11;100857.78;5048649;28;20045;-42
2022/01/07 09:34:50;;;;;;;31.38;6.18;;;;;;;5.17;91.10;100849.59;5048748;28;20535;-42
2022/01/07 09:37:15;;;;;;;28.65;5.55;;;;;;;5.55;90.65;100848.53;5048600;28;20096;-42
2022/01/07 09:39:41;;;;;;;22.30;5.75;;;;;;;5.80;89.12;100840.81;5048482;28;20068;-42
2022/01/07 09:42:07;;;;;;;21.40;4.70;;;;;;;6.10;87.79;100847.66;5052063;28;20044;-42
2022/01/07 09:44:40;;;;;;;24.23;5.25;;;;;;;5.91;87.43;100848.59;5050900;28;20104;-41
2022/01/07 09:47:06;;;;;;;15.75;4.50;;;;;;;5.48;88.40;100861.66;5050570;28;20025;-41
2022/01/07 09:49:34;;;;;;;24.10;5.97;;;;;;;5.28;90.10;100865.41;5051871;28;20312;-42
2022/01/07 09:52:00;;;;;;;23.92;5.65;;;;;;;5.04;90.54;100849.91;5052111;28;20032;-39
2022/01/07 09:54:25;;;;;;;20.00;5.18;;;;;;;5.00;91.46;100845.84;5051523;28;20035;-40
2022/01/07 09:56:51;;;;;;;33.22;5.95;;;;;;;4.95;90.94;100851.63;5051791;28;20032;-42
2022/01/07 09:59:17;;;;;;;28.88;5.90;;;;;;;4.93;91.62;100844.75;5051625;28;20021;-40
2022/01/07 10:01:57;;;;;;;24.42;5.85;;;;;;;4.94;91.86;100855.25;5052170;28;20029;-42
2022/01/07 10:04:32;;;;;;;24.90;5.43;;;;;;;4.94;91.00;100852.59;5051379;28;20476;-41
2022/01/07 10:07:13;;;;;;;34.03;5.40;;;;;;;4.98;91.57;100862.00;5050302;28;20025;-43
2022/01/07 10:09:42;;;;;;;18.73;3.20;;;;;;;4.78;88.45;100857.69;5051424;28;20104;-46
2022/01/07 10:12:08;;;;;;;19.95;3.17;;;;;;;4.68;86.96;100848.88;5049851;28;20457;-50
2022/01/07 10:14:36;;;;;;;18.27;3.38;;;;;;;4.57;86.36;100849.88;5051390;28;20032;-47
2022/01/07 10:17:03;;;;;;;14.93;3.08;;;;;;;4.58;86.94;100854.22;5051393;28;20040;-45
2022/01/07 10:19:28;;;;;;;13.53;2.27;;;;;;;4.64;86.83;100853.66;5051219;28;20017;-46
2022/01/07 10:22:05;;;;;;;9.90;1.95;;;;;;;4.73;85.88;100857.28;5052586;28;20036;-45
2022/01/07 10:24:31;;;;;;;24.25;3.38;;;;;;;4.81;86.84;100860.91;5054592;28;20116;-43
2022/01/07 10:27:10;;;;;;;17.70;2.90;;;;;;;4.88;87.68;100849.69;5054774;28;20056;-44
2022/01/07 10:29:43;;;;;;;12.80;3.40;;;;;;;4.93;88.86;100848.25;5052406;28;20438;-43
2022/01/07 10:32:38;;;;;;;18.65;2.15;;;;;;;5.07;86.23;100858.44;5054343;28;20534;-41
2022/01/07 10:35:08;;;;;;;19.65;2.33;;;;;;;5.19;86.46;100855.63;5049569;28;20121;-42
2022/01/07 10:37:35;;;;;;;22.20;2.58;;;;;;;5.32;85.08;100847.25;5054028;28;20073;-41
2022/01/07 10:40:01;;;;;;;18.48;2.10;;;;;;;5.53;85.30;100855.00;5054475;28;20032;-43
2022/01/07 10:42:27;;;;;;;23.60;2.50;;;;;;;5.69;84.68;100857.91;5052810;28;20033;-42
2022/01/07 10:45:00;;;;;;;27.90;2.50;;;;;;;5.80;82.31;100852.34;5053961;28;20056;-42
2022/01/07 10:47:28;;;;;;;23.67;2.13;;;;;;;5.78;80.32;100853.47;5054194;28;20431;-42
2022/01/07 10:50:13;;;;;;;20.52;2.47;;;;;;;5.77;80.91;100859.81;5036491;28;20057;-42
2022/01/07 10:52:38;;;;;;;21.67;2.40;;;;;;;5.78;80.10;100854.31;5053903;28;20491;-42
2022/01/07 10:55:12;;;;;;;22.90;2.53;;;;;;;5.80;80.53;100852.34;5054090;28;20017;-42
2022/01/07 10:57:44;;;;;;;14.32;2.28;;;;;;;5.92;79.22;100845.78;5054281;28;20029;-41
2022/01/07 11:00:12;;;;;;;19.30;2.78;;;;;;;5.96;79.99;100845.53;5054028;28;20555;-41
2022/01/07 11:02:37;;;;;;;20.27;2.85;;;;;;;6.28;79.76;100845.81;5053742;28;20075;-42
2022/01/07 11:05:03;;;;;;;16.73;2.17;;;;;;;6.71;75.43;100852.16;5053841;28;20025;-41
2022/01/07 11:07:29;;;;;;;21.02;2.45;;;;;;;6.97;75.28;100851.31;5053417;28;20373;-42
2022/01/07 11:09:56;;;;;;;16.85;2.10;;;;;;;7.08;73.63;100844.84;5052917;28;20492;-42
2022/01/07 11:12:22;;;;;;;13.63;3.38;;;;;;;7.19;73.97;100845.44;5053928;28;20036;-41
2022/01/07 11:14:48;;;;;;;17.83;1.80;;;;;;;7.40;73.41;100849.53;5053777;28;20028;-41
2022/01/07 11:17:20;;;;;;;22.13;2.08;;;;;;;7.80;68.85;100838.13;5053654;28;20033;-42
2022/01/07 11:19:50;;;;;;;15.10;2.35;;;;;;;8.30;66.25;100839.03;5053685;28;20025;-42
2022/01/07 11:22:16;;;;;;;14.20;1.65;;;;;;;8.68;67.00;100850.09;5035316;28;20119;-41
2022/01/07 11:24:46;;;;;;;16.48;1.48;;;;;;;8.85;64.47;100841.03;5052176;28;20545;-42
2022/01/07 11:27:20;;;;;;;16.38;2.40;;;;;;;8.06;65.60;100846.03;5053781;28;20483;-41
2022/01/07 11:29:52;;;;;;;12.00;1.90;;;;;;;7.75;66.66;100839.63;5053169;28;20037;-43